createdAt,value
2022-12-05T00:00:37.812Z,1.93
2022-12-05T00:03:07.971Z,1.86
2022-12-05T00:05:42.374Z,1.87
2022-12-05T00:08:09.909Z,2.13
2022-12-05T00:10:38.306Z,1.84
2022-12-05T00:13:08.733Z,1.72
2022-12-05T00:15:40.815Z,1.76
2022-12-05T00:18:10.614Z,1.76
2022-12-05T00:20:37.902Z,1.62
2022-12-05T00:23:05.346Z,1.71
2022-12-05T00:25:36.511Z,2.15
2022-12-05T00:28:03.888Z,2.22
2022-12-05T00:30:31.129Z,2.21
2022-12-05T00:32:59.286Z,2.20
2022-12-05T00:35:26.469Z,1.99
2022-12-05T00:37:54.159Z,2.03
2022-12-05T00:40:21.396Z,2.11
2022-12-05T00:42:52.307Z,2.28
2022-12-05T00:45:20.060Z,2.26
2022-12-05T00:47:47.368Z,2.27
2022-12-05T00:50:14.727Z,1.96
2022-12-05T00:52:42.294Z,2.24
2022-12-05T00:55:13.752Z,2.30
2022-12-05T00:57:41.958Z,2.17
2022-12-05T01:00:12.848Z,2.03
2022-12-05T01:02:45.646Z,2.15
2022-12-05T01:05:16.416Z,1.80
2022-12-05T01:07:43.753Z,2.02
2022-12-05T01:10:13.748Z,2.21
2022-12-05T01:12:40.888Z,2.12
2022-12-05T01:15:09.423Z,2.27
2022-12-05T01:17:36.593Z,2.03
2022-12-05T01:20:04.597Z,2.36
2022-12-05T01:22:31.793Z,2.04
2022-12-05T01:24:59.052Z,1.90
2022-12-05T01:27:26.332Z,2.07
2022-12-05T01:29:53.724Z,1.89
2022-12-05T01:32:21.059Z,2.13
2022-12-05T01:34:48.531Z,1.87
2022-12-05T01:37:18.488Z,2.25
2022-12-05T01:39:48.232Z,2.15
2022-12-05T01:42:15.664Z,2.23
2022-12-05T01:44:42.734Z,2.34
2022-12-05T01:47:10.113Z,2.49
2022-12-05T01:49:41.961Z,2.14
2022-12-05T01:52:20.592Z,1.98
2022-12-05T01:54:51.089Z,2.15
2022-12-05T01:57:19.010Z,1.93
2022-12-05T01:59:56.229Z,1.87
2022-12-05T02:02:24.391Z,1.94
2022-12-05T02:05:03.570Z,1.76
2022-12-05T02:07:32.814Z,2.08
2022-12-05T02:10:00.953Z,2.21
2022-12-05T02:12:28.611Z,2.25
2022-12-05T02:15:38.155Z,1.91
2022-12-05T02:18:32.791Z,1.94
2022-12-05T02:21:37.635Z,1.66
2022-12-05T02:24:34.570Z,1.69
2022-12-05T02:27:29.639Z,1.44
2022-12-05T02:30:20.349Z,2.13
2022-12-05T02:33:20.188Z,1.64
2022-12-05T02:36:07.481Z,1.79
2022-12-05T02:39:30.057Z,1.74
2022-12-05T02:42:39.722Z,1.48
2022-12-05T02:45:14.371Z,1.99
2022-12-05T02:47:50.201Z,2.05
2022-12-05T02:50:28.485Z,1.62
2022-12-05T02:53:01.003Z,1.79
2022-12-05T02:55:31.114Z,1.68
2022-12-05T02:58:03.461Z,1.83
2022-12-05T03:00:30.761Z,2.04
2022-12-05T03:03:02.779Z,2.03
2022-12-05T03:05:33.725Z,2.12
2022-12-05T03:08:04.668Z,1.98
2022-12-05T03:10:36.799Z,2.03
2022-12-05T03:13:18.178Z,1.57
2022-12-05T03:15:53.762Z,2.09
2022-12-05T03:18:34.862Z,2.06
2022-12-05T03:21:30.363Z,2.16
2022-12-05T03:24:06.857Z,2.17
2022-12-05T03:27:21.156Z,1.76
2022-12-05T03:29:59.288Z,1.80
2022-12-05T03:32:45.783Z,1.90
2022-12-05T03:35:39.794Z,1.70
2022-12-05T03:38:51.191Z,2.01
2022-12-05T03:41:53.726Z,1.84
2022-12-05T03:45:06.148Z,1.81
2022-12-05T03:47:45.387Z,1.98
2022-12-05T03:50:29.329Z,1.91
2022-12-05T03:53:20.703Z,1.65
2022-12-05T03:55:59.139Z,1.87
2022-12-05T03:58:36.707Z,1.77
2022-12-05T04:01:08.294Z,1.89
2022-12-05T04:04:00.912Z,1.92
2022-12-05T04:06:35.173Z,1.87
2022-12-05T04:09:16.999Z,1.93
2022-12-05T04:11:52.018Z,1.69
2022-12-05T04:14:28.847Z,1.95
2022-12-05T04:17:12.326Z,1.50
2022-12-05T04:20:13.818Z,2.00
2022-12-05T04:22:42.520Z,1.80
2022-12-05T04:25:32.043Z,1.59
2022-12-05T04:28:30.050Z,1.90
2022-12-05T04:31:08.030Z,1.73
2022-12-05T04:33:56.759Z,1.83
2022-12-05T04:36:31.620Z,1.96
2022-12-05T04:39:26.158Z,1.98
2022-12-05T04:42:26.652Z,2.00
2022-12-05T04:45:00.289Z,1.95
2022-12-05T04:47:33.104Z,1.79
2022-12-05T04:50:02.235Z,1.74
2022-12-05T04:52:31.182Z,1.77
2022-12-05T04:55:20.786Z,1.87
2022-12-05T04:58:07.981Z,1.84
2022-12-05T05:00:50.096Z,1.67
2022-12-05T05:03:56.610Z,1.93
2022-12-05T05:06:24.023Z,1.86
2022-12-05T05:08:57.558Z,1.98
2022-12-05T05:11:32.179Z,1.75
2022-12-05T05:13:59.996Z,1.79
2022-12-05T05:16:34.707Z,1.93
2022-12-05T05:19:03.159Z,1.99
2022-12-05T05:21:35.876Z,1.70
2022-12-05T05:24:15.697Z,1.89
2022-12-05T05:26:45.990Z,2.31
2022-12-05T05:29:15.496Z,2.41
2022-12-05T05:31:43.277Z,2.39
2022-12-05T05:34:16.255Z,2.35
2022-12-05T05:36:44.336Z,1.66
2022-12-05T05:39:15.880Z,1.94
2022-12-05T05:41:44.408Z,1.91
2022-12-05T05:44:11.761Z,2.09
2022-12-05T05:46:39.088Z,1.51
2022-12-05T05:49:06.475Z,1.76
2022-12-05T05:51:33.770Z,1.89
2022-12-05T05:54:01.087Z,1.97
2022-12-05T05:56:29.216Z,2.00
2022-12-05T05:59:08.447Z,1.84
2022-12-05T06:01:35.558Z,2.14
2022-12-05T06:04:08.163Z,2.25
2022-12-05T06:06:35.566Z,2.12
2022-12-05T06:09:02.786Z,1.91
2022-12-05T06:11:30.494Z,1.97
2022-12-05T06:14:03.084Z,1.58
2022-12-05T06:16:32.097Z,2.09
2022-12-05T06:18:59.822Z,2.09
2022-12-05T06:21:27.686Z,1.81
2022-12-05T06:23:55.720Z,1.74
2022-12-05T06:26:24.015Z,1.69
2022-12-05T06:28:53.571Z,1.71
2022-12-05T06:31:23.870Z,2.06
2022-12-05T06:33:51.183Z,1.92
2022-12-05T06:36:22.025Z,1.69
2022-12-05T06:38:52.253Z,1.59
2022-12-05T06:41:25.448Z,1.64
2022-12-05T06:44:02.172Z,1.83
2022-12-05T06:46:30.185Z,1.92
2022-12-05T06:48:59.087Z,1.65
2022-12-05T06:51:29.410Z,1.94
2022-12-05T06:53:57.267Z,2.17
2022-12-05T06:56:24.354Z,2.15
2022-12-05T06:58:53.622Z,2.14
2022-12-05T07:01:38.818Z,2.15
2022-12-05T07:04:24.132Z,1.84
2022-12-05T07:06:56.408Z,1.86
2022-12-05T07:09:44.823Z,1.71
2022-12-05T07:12:14.646Z,1.59
2022-12-05T07:14:48.083Z,1.84
2022-12-05T07:17:17.468Z,2.16
2022-12-05T07:19:45.303Z,1.88
2022-12-05T07:22:15.970Z,1.82
2022-12-05T07:24:44.870Z,1.71
2022-12-05T07:27:15.383Z,2.07
2022-12-05T07:29:42.607Z,1.97
2022-12-05T07:32:12.266Z,2.00
2022-12-05T07:34:42.476Z,1.94
2022-12-05T07:37:13.928Z,1.33
2022-12-05T07:39:41.103Z,1.58
2022-12-05T07:42:08.263Z,1.80
2022-12-05T07:44:39.234Z,1.40
2022-12-05T07:47:06.414Z,1.88
2022-12-05T07:49:33.694Z,1.58
2022-12-05T07:52:00.764Z,1.66
2022-12-05T07:54:27.885Z,1.62
2022-12-05T07:56:55.130Z,1.56
2022-12-05T07:59:22.283Z,1.56
2022-12-05T08:01:49.859Z,1.94
2022-12-05T08:04:17.165Z,1.91
2022-12-05T08:06:44.839Z,1.60
2022-12-05T08:09:16.749Z,1.74
2022-12-05T08:11:51.054Z,1.73
2022-12-05T08:14:22.044Z,1.80
2022-12-05T08:16:49.418Z,1.89
2022-12-05T08:19:17.261Z,1.77
2022-12-05T08:21:44.668Z,1.91
2022-12-05T08:24:13.696Z,1.74
2022-12-05T08:26:43.507Z,1.69
2022-12-05T08:29:14.663Z,1.88
2022-12-05T08:31:49.034Z,2.18
2022-12-05T08:34:19.582Z,2.07
2022-12-05T08:36:47.605Z,2.00
2022-12-05T08:39:18.033Z,1.97
2022-12-05T08:41:47.420Z,2.17
2022-12-05T08:44:18.821Z,1.77
2022-12-05T08:46:49.429Z,1.97
2022-12-05T08:49:19.547Z,2.10
2022-12-05T08:51:49.250Z,1.76
2022-12-05T08:54:17.352Z,1.88
2022-12-05T08:56:44.727Z,1.98
2022-12-05T08:59:12.098Z,2.04
2022-12-05T09:01:40.669Z,2.16
2022-12-05T09:04:10.762Z,2.23
2022-12-05T09:06:40.433Z,1.93
2022-12-05T09:09:11.797Z,2.29
2022-12-05T09:11:46.751Z,1.89
2022-12-05T09:14:15.124Z,2.14
2022-12-05T09:16:46.021Z,1.89
2022-12-05T09:19:18.300Z,2.18
2022-12-05T09:21:45.432Z,2.28
2022-12-05T09:24:14.161Z,2.35
2022-12-05T09:26:44.248Z,1.87
2022-12-05T09:29:18.008Z,2.11
2022-12-05T09:31:50.148Z,2.16
2022-12-05T09:34:18.606Z,2.25
2022-12-05T09:36:46.441Z,2.29
2022-12-05T09:39:14.063Z,2.25
2022-12-05T09:42:21.969Z,1.94
2022-12-05T09:45:32.227Z,1.88
2022-12-05T09:48:15.717Z,2.13
2022-12-05T09:50:50.027Z,2.09
2022-12-05T09:53:33.574Z,2.48
2022-12-05T09:56:16.208Z,2.24
2022-12-05T09:58:52.553Z,1.82
2022-12-05T10:02:14.159Z,2.24
2022-12-05T10:05:02.697Z,2.05
2022-12-05T10:08:03.288Z,2.25
2022-12-05T10:10:45.794Z,2.32
2022-12-05T10:13:28.383Z,2.37
2022-12-05T10:16:21.910Z,2.32
2022-12-05T10:19:06.615Z,2.57
2022-12-05T10:21:52.903Z,2.35
2022-12-05T10:24:33.957Z,2.53
2022-12-05T10:27:08.853Z,2.24
2022-12-05T10:29:49.262Z,2.17
2022-12-05T10:32:30.523Z,2.16
2022-12-05T10:35:19.778Z,2.48
2022-12-05T10:37:54.518Z,2.45
2022-12-05T10:40:22.596Z,2.26
2022-12-05T10:42:52.678Z,2.30
2022-12-05T10:45:23.906Z,2.24
2022-12-05T10:47:59.087Z,2.19
2022-12-05T10:50:30.684Z,2.43
2022-12-05T10:53:00.539Z,2.33
2022-12-05T10:55:59.972Z,2.06
2022-12-05T10:58:33.665Z,2.10
2022-12-05T11:01:15.986Z,2.34
2022-12-05T11:03:44.138Z,2.33
2022-12-05T11:06:44.031Z,2.52
2022-12-05T11:09:31.031Z,2.29
2022-12-05T11:12:09.238Z,2.74
2022-12-05T11:14:36.546Z,2.47
2022-12-05T11:17:06.863Z,2.25
2022-12-05T11:19:40.100Z,2.38
2022-12-05T11:22:08.282Z,2.55
2022-12-05T11:24:39.610Z,2.46
2022-12-05T11:27:32.183Z,2.56
2022-12-05T11:30:05.153Z,2.65
2022-12-05T11:32:34.022Z,2.31
2022-12-05T11:35:13.259Z,2.40
2022-12-05T11:38:02.124Z,2.00
2022-12-05T11:40:57.791Z,2.15
2022-12-05T11:43:30.642Z,2.33
2022-12-05T11:46:31.783Z,1.96
2022-12-05T11:50:06.071Z,2.28
2022-12-05T11:52:58.111Z,2.35
2022-12-05T11:55:34.533Z,1.96
2022-12-05T11:58:35.136Z,2.22
2022-12-05T12:01:33.756Z,2.31
2022-12-05T12:04:25.677Z,2.36
2022-12-05T12:07:46.085Z,2.15
2022-12-05T12:10:50.862Z,2.45
2022-12-05T12:13:26.796Z,2.51
2022-12-05T12:16:22.590Z,2.39
2022-12-05T12:19:21.864Z,2.41
2022-12-05T12:22:32.835Z,2.64
2022-12-05T12:25:21.196Z,2.62
2022-12-05T12:28:08.735Z,2.47
2022-12-05T12:31:22.465Z,2.59
2022-12-05T12:34:26.685Z,2.66
2022-12-05T12:37:19.812Z,2.51
2022-12-05T12:40:19.213Z,2.24
2022-12-05T12:43:08.067Z,2.49
2022-12-05T12:46:08.088Z,2.83
2022-12-05T12:49:35.096Z,2.73
2022-12-05T12:52:14.647Z,2.37
2022-12-05T12:55:32.061Z,2.66
2022-12-05T12:58:27.584Z,2.90
2022-12-05T13:01:03.648Z,2.76
2022-12-05T13:03:51.719Z,2.22
2022-12-05T13:06:31.257Z,2.68
2022-12-05T13:09:12.565Z,2.84
2022-12-05T13:11:44.534Z,2.48
2022-12-05T13:14:24.987Z,2.83
2022-12-05T13:16:54.833Z,2.48
2022-12-05T13:19:53.954Z,2.25
2022-12-05T13:22:26.678Z,2.22
2022-12-05T13:24:55.282Z,2.46
2022-12-05T13:27:27.534Z,2.09
2022-12-05T13:30:02.698Z,2.42
2022-12-05T13:32:43.851Z,2.32
2022-12-05T13:35:49.685Z,2.56
2022-12-05T13:38:50.466Z,2.67
2022-12-05T13:41:36.725Z,2.57
2022-12-05T13:44:12.537Z,2.56
2022-12-05T13:46:43.848Z,2.72
2022-12-05T13:49:48.166Z,2.88
2022-12-05T13:52:30.296Z,2.56
2022-12-05T13:55:35.622Z,2.74
2022-12-05T13:58:23.635Z,2.89
2022-12-05T14:00:52.358Z,2.82
2022-12-05T14:03:36.857Z,2.77
2022-12-05T14:06:06.622Z,2.97
2022-12-05T14:08:39.909Z,2.69
2022-12-05T14:11:13.713Z,2.52
2022-12-05T14:13:43.714Z,2.75
2022-12-05T14:16:31.658Z,2.41
2022-12-05T14:19:34.394Z,2.70
2022-12-05T14:22:38.570Z,2.81
2022-12-05T14:25:57.392Z,2.69
2022-12-05T14:28:58.792Z,2.97
2022-12-05T14:32:04.692Z,2.80
2022-12-05T14:34:36.614Z,2.46
2022-12-05T14:37:15.612Z,2.60
2022-12-05T14:39:49.111Z,2.79
2022-12-05T14:42:51.299Z,2.69
2022-12-05T14:45:50.946Z,2.61
2022-12-05T14:48:17.986Z,2.36
2022-12-05T14:50:51.077Z,2.47
2022-12-05T14:53:21.243Z,2.60
2022-12-05T14:55:54.300Z,2.69
2022-12-05T14:58:52.011Z,2.79
2022-12-05T15:01:54.934Z,2.53
2022-12-05T15:05:12.287Z,2.46
2022-12-05T15:07:40.505Z,2.60
2022-12-05T15:10:14.152Z,2.50
2022-12-05T15:12:53.738Z,2.47
2022-12-05T15:15:36.674Z,2.13
2022-12-05T15:18:31.952Z,2.71
2022-12-05T15:21:14.757Z,2.78
2022-12-05T15:23:46.461Z,2.75
2022-12-05T15:29:21.176Z,2.39
2022-12-05T15:31:55.313Z,2.32
2022-12-05T15:34:53.140Z,2.63
2022-12-05T15:37:35.111Z,2.72
2022-12-05T15:40:17.985Z,2.88
2022-12-05T15:43:24.352Z,2.70
2022-12-05T15:46:06.282Z,2.47
2022-12-05T15:48:33.462Z,2.38
2022-12-05T15:51:03.187Z,2.64
2022-12-05T15:53:45.014Z,2.78
2022-12-05T15:56:39.489Z,2.51
2022-12-05T15:59:18.711Z,2.59
2022-12-05T16:02:23.715Z,2.85
2022-12-05T16:04:57.155Z,2.51
2022-12-05T16:07:34.034Z,2.60
2022-12-05T16:10:02.710Z,2.94
2022-12-05T16:12:42.483Z,3.05
2022-12-05T16:15:24.214Z,2.94
2022-12-05T16:18:01.662Z,2.90
2022-12-05T16:20:33.185Z,3.13
2022-12-05T16:23:30.394Z,2.96
2022-12-05T16:26:21.426Z,2.76
2022-12-05T16:29:00.969Z,3.27
2022-12-05T16:31:30.097Z,3.32
2022-12-05T16:34:14.538Z,3.41
2022-12-05T16:36:54.487Z,2.93
2022-12-05T16:39:23.595Z,3.43
2022-12-05T16:41:51.588Z,2.91
2022-12-05T16:44:28.598Z,3.48
2022-12-05T16:47:00.498Z,3.45
2022-12-05T16:49:30.862Z,3.38
2022-12-05T16:52:14.638Z,3.28
2022-12-05T16:54:46.066Z,3.07
2022-12-05T16:57:16.402Z,3.27
2022-12-05T16:59:45.844Z,3.19
2022-12-05T17:02:19.400Z,3.38
2022-12-05T17:04:47.259Z,3.38
2022-12-05T17:07:14.727Z,3.17
2022-12-05T17:09:44.388Z,3.01
2022-12-05T17:12:20.820Z,3.18
2022-12-05T17:14:50.370Z,2.99
2022-12-05T17:17:19.291Z,2.72
2022-12-05T17:19:46.710Z,2.79
2022-12-05T17:22:16.136Z,3.15
2022-12-05T17:24:43.957Z,2.65
2022-12-05T17:27:14.668Z,2.97
2022-12-05T17:29:44.685Z,3.11
2022-12-05T17:32:13.429Z,3.16
2022-12-05T17:34:42.956Z,3.21
2022-12-05T17:37:10.197Z,3.26
2022-12-05T17:39:37.454Z,2.90
2022-12-05T17:42:04.834Z,2.94
2022-12-05T17:44:32.136Z,3.00
2022-12-05T17:47:07.770Z,2.45
2022-12-05T17:49:36.012Z,2.92
2022-12-05T17:54:54.178Z,3.06
2022-12-05T17:57:22.590Z,2.78
2022-12-05T17:59:49.981Z,2.83
2022-12-05T18:02:20.273Z,3.06
2022-12-05T18:04:47.621Z,3.19
2022-12-05T18:07:17.379Z,3.25
2022-12-05T18:09:44.656Z,3.25
2022-12-05T18:12:11.979Z,3.05
2022-12-05T18:14:42.227Z,3.04
2022-12-05T18:17:11.892Z,3.13
2022-12-05T18:19:39.182Z,3.11
2022-12-05T18:22:08.884Z,3.16
2022-12-05T18:24:36.053Z,3.31
2022-12-05T18:27:05.523Z,3.25
2022-12-05T18:29:32.838Z,3.62
2022-12-05T18:32:00.354Z,3.32
2022-12-05T18:34:27.644Z,3.25
2022-12-05T18:36:57.463Z,3.31
2022-12-05T18:39:24.902Z,3.38
2022-12-05T18:41:52.592Z,3.34
2022-12-05T18:44:21.118Z,3.32
2022-12-05T18:46:48.773Z,3.39
2022-12-05T18:49:16.163Z,3.23
2022-12-05T18:51:43.396Z,3.22
2022-12-05T18:54:10.905Z,3.53
2022-12-05T18:56:40.904Z,3.40
2022-12-05T18:59:14.673Z,3.38
2022-12-05T19:01:45.999Z,2.95
2022-12-05T19:04:17.223Z,3.36
2022-12-05T19:07:02.053Z,3.60
2022-12-05T19:09:34.016Z,3.65
2022-12-05T19:12:01.769Z,3.46
2022-12-05T19:14:33.193Z,3.63
2022-12-05T19:17:00.948Z,3.60
2022-12-05T19:19:29.429Z,3.69
2022-12-05T19:21:59.586Z,3.35
2022-12-05T19:24:27.160Z,3.69
2022-12-05T19:26:54.414Z,3.75
2022-12-05T19:29:21.849Z,3.72
2022-12-05T19:31:49.857Z,4.01
2022-12-05T19:34:17.070Z,3.68
2022-12-05T19:36:46.365Z,3.80
2022-12-05T19:39:20.693Z,3.94
2022-12-05T19:41:49.381Z,3.40
2022-12-05T19:44:17.449Z,3.57
2022-12-05T19:46:47.387Z,3.42
2022-12-05T19:49:19.016Z,3.62
2022-12-05T19:51:48.625Z,3.68
2022-12-05T19:54:22.226Z,3.94
2022-12-05T19:56:58.537Z,3.69
2022-12-05T19:59:28.526Z,3.72
2022-12-05T20:01:58.130Z,3.37
2022-12-05T20:04:25.822Z,3.76
2022-12-05T20:06:53.185Z,3.70
2022-12-05T20:09:23.044Z,3.83
2022-12-05T20:11:55.544Z,3.69
2022-12-05T20:14:28.905Z,3.70
2022-12-05T20:16:59.059Z,3.57
2022-12-05T20:19:29.984Z,3.66
2022-12-05T20:21:58.875Z,3.88
2022-12-05T20:24:26.128Z,3.77
2022-12-05T20:26:54.998Z,3.80
2022-12-05T20:29:22.391Z,3.55
2022-12-05T20:31:53.214Z,3.74
2022-12-05T20:34:20.852Z,3.83
2022-12-05T20:36:48.219Z,3.49
2022-12-05T20:39:20.006Z,3.70
2022-12-05T20:41:52.725Z,3.61
2022-12-05T20:44:20.053Z,3.64
2022-12-05T20:46:50.689Z,3.79
2022-12-05T20:49:18.714Z,3.63
2022-12-05T20:51:50.352Z,3.14
2022-12-05T20:54:21.351Z,2.84
2022-12-05T20:56:56.176Z,3.00
2022-12-05T20:59:32.635Z,3.03
2022-12-05T21:02:02.872Z,2.84
2022-12-05T21:04:40.041Z,3.29
2022-12-05T21:07:08.829Z,3.80
2022-12-05T21:09:39.341Z,4.06
2022-12-05T21:12:07.386Z,3.91
2022-12-05T21:14:42.427Z,3.42
2022-12-05T21:17:27.937Z,3.73
2022-12-05T21:20:01.857Z,3.97
2022-12-05T21:22:36.263Z,3.94
2022-12-05T21:25:14.758Z,3.85
2022-12-05T21:27:55.181Z,3.75
2022-12-05T21:30:30.052Z,3.42
2022-12-05T21:33:06.520Z,3.20
2022-12-05T21:35:46.602Z,3.40
2022-12-05T21:38:49.536Z,3.73
2022-12-05T21:41:26.069Z,3.41
2022-12-05T21:44:03.277Z,3.15
2022-12-05T21:46:38.109Z,3.42
2022-12-05T21:49:24.402Z,3.23
2022-12-05T21:52:30.715Z,3.72
2022-12-05T21:55:16.701Z,3.76
2022-12-05T21:57:48.379Z,3.93
2022-12-05T22:00:18.327Z,3.86
2022-12-05T22:02:46.677Z,3.74
2022-12-05T22:05:20.313Z,4.10
2022-12-05T22:07:54.392Z,3.93
2022-12-05T22:10:28.253Z,3.98
2022-12-05T22:12:57.795Z,3.33
2022-12-05T22:15:31.441Z,3.47
2022-12-05T22:18:01.686Z,3.95
2022-12-05T22:20:30.259Z,4.11
2022-12-05T22:23:01.031Z,3.99
2022-12-05T22:25:32.171Z,4.27
2022-12-05T22:28:07.612Z,3.55
2022-12-05T22:30:39.414Z,4.00
2022-12-05T22:33:10.584Z,3.94
2022-12-05T22:35:41.521Z,3.78
2022-12-05T22:38:12.111Z,3.94
2022-12-05T22:40:39.964Z,3.92
2022-12-05T22:43:07.855Z,3.79
2022-12-05T22:45:36.725Z,4.21
2022-12-05T22:48:05.111Z,4.29
2022-12-05T22:50:32.904Z,3.68
2022-12-05T22:53:05.498Z,3.94
2022-12-05T22:55:43.149Z,4.19
2022-12-05T22:58:16.847Z,3.63
2022-12-05T23:00:45.702Z,3.90
2022-12-05T23:03:19.699Z,4.32
2022-12-05T23:05:48.889Z,4.05
2022-12-05T23:08:22.422Z,4.43
2022-12-05T23:10:50.642Z,4.58
2022-12-05T23:13:18.679Z,4.75
2022-12-05T23:15:46.452Z,4.78
2022-12-05T23:18:16.187Z,4.92
2022-12-05T23:20:47.234Z,4.89
2022-12-05T23:23:15.194Z,3.94
2022-12-05T23:25:45.834Z,4.32
2022-12-05T23:28:14.005Z,4.27
2022-12-05T23:30:45.179Z,4.75
2022-12-05T23:33:14.412Z,4.39
2022-12-05T23:35:45.699Z,4.17
2022-12-05T23:38:13.924Z,3.93
2022-12-05T23:40:41.845Z,3.86
2022-12-05T23:43:09.661Z,4.47
2022-12-05T23:45:42.162Z,4.09
2022-12-05T23:48:09.845Z,4.18
2022-12-05T23:50:37.871Z,4.38
2022-12-05T23:53:08.895Z,4.65
2022-12-05T23:55:37.263Z,4.38
2022-12-05T23:58:05.480Z,4.33
